Time;durP1;ratioP1;P1;durP2;ratioP2;P2;SDS_P1;SDS_P2;PMS_P1;PMS_P2;Temp;Humidity;BMP_temperature;BMP_pressure;BME280_temperature;BME280_humidity;BME280_pressure;Samples;Min_cycle;Max_cycle;Signal;HPM_P1;HPM_P2
2021/09/06 00:00:10;;;;;;;2.67;2.47;;;;;;;17.28;52.15;101897.06;684436;28;45832;-66
2021/09/06 00:00:33;;;;;;;3.88;3.03;;;;;;;17.26;52.36;101891.78;681501;28;138119;-67
2021/09/06 00:00:57;;;;;;;2.92;2.70;;;;;;;17.25;52.33;101892.00;686266;28;14813;-66
2021/09/06 00:01:19;;;;;;;3.13;2.83;;;;;;;17.24;52.26;101898.47;685222;28;22416;-66
2021/09/06 00:01:40;;;;;;;3.50;2.60;;;;;;;17.22;52.49;101889.66;683214;28;64983;-67
2021/09/06 00:02:02;;;;;;;3.72;2.78;;;;;;;17.21;52.32;101899.72;684122;28;23441;-67
2021/09/06 00:02:23;;;;;;;2.90;2.60;;;;;;;17.20;52.40;101889.00;682602;28;22225;-66
2021/09/06 00:02:45;;;;;;;3.03;2.70;;;;;;;17.18;52.39;101891.94;682868;28;23381;-65
2021/09/06 00:03:06;;;;;;;3.80;2.80;;;;;;;17.17;52.63;101889.38;680869;29;46561;-66
2021/09/06 00:03:27;;;;;;;3.35;2.72;;;;;;;17.17;52.71;101892.94;681493;28;46304;-67
2021/09/06 00:03:48;;;;;;;3.40;2.58;;;;;;;17.17;52.64;101895.69;682992;28;22399;-67
2021/09/06 00:04:10;;;;;;;4.05;2.60;;;;;;;17.16;52.81;101891.25;683037;28;22478;-67
2021/09/06 00:04:33;;;;;;;4.07;2.65;;;;;;;17.17;52.74;101894.84;682988;28;23508;-66
2021/09/06 00:04:54;;;;;;;2.55;2.35;;;;;;;17.17;52.79;101889.38;681402;28;67486;-67
2021/09/06 00:05:15;;;;;;;2.72;2.53;;;;;;;17.17;52.54;101890.22;682360;28;22399;-66
2021/09/06 00:05:36;;;;;;;3.22;2.88;;;;;;;17.16;52.50;101891.25;682694;28;21518;-66
2021/09/06 00:05:58;;;;;;;3.03;2.80;;;;;;;17.16;52.61;101888.53;682721;28;22393;-66
2021/09/06 00:06:19;;;;;;;2.85;2.60;;;;;;;17.15;52.47;101885.97;682040;28;45257;-66
2021/09/06 00:06:41;;;;;;;2.88;2.63;;;;;;;17.13;52.40;101886.16;683051;28;22419;-67
2021/09/06 00:07:03;;;;;;;2.80;2.60;;;;;;;17.11;52.49;101883.66;681774;28;46302;-67
2021/09/06 00:07:24;;;;;;;2.88;2.67;;;;;;;17.11;52.52;101891.00;680819;29;44401;-66
2021/09/06 00:07:47;;;;;;;3.45;2.70;;;;;;;17.09;52.50;101893.06;680973;28;22396;-66
2021/09/06 00:08:08;;;;;;;2.80;2.60;;;;;;;17.05;52.43;101892.63;682341;28;45322;-66
2021/09/06 00:08:30;;;;;;;4.05;2.95;;;;;;;17.06;52.72;101886.09;682785;28;36574;-67
2021/09/06 00:08:51;;;;;;;4.03;2.83;;;;;;;17.06;52.63;101890.72;682206;28;46679;-67
2021/09/06 00:09:12;;;;;;;2.63;2.40;;;;;;;17.05;52.82;101884.44;682833;28;22421;-66
2021/09/06 00:09:33;;;;;;;3.83;2.67;;;;;;;17.05;52.73;101881.69;683349;28;24468;-66
2021/09/06 00:10:04;;;;;;;4.32;2.78;;;;;;;17.04;52.59;101890.91;682708;28;23499;-66
2021/09/06 00:10:37;;;;;;;2.70;2.45;;;;;;;17.03;52.60;101885.66;679168;28;136118;-66
2021/09/06 00:11:08;;;;;;;4.72;2.80;;;;;;;17.03;52.70;101882.94;679157;28;138155;-67
2021/09/06 00:11:29;;;;;;;3.22;2.72;;;;;;;17.01;52.89;101887.75;678019;28;161114;-66
2021/09/06 00:11:50;;;;;;;3.25;2.70;;;;;;;16.95;52.85;101878.41;681815;28;46431;-67
2021/09/06 00:12:11;;;;;;;2.97;2.50;;;;;;;16.97;52.84;101887.25;683180;28;21304;-66
2021/09/06 00:12:32;;;;;;;2.92;2.70;;;;;;;16.98;52.92;101882.66;682856;28;22412;-66
2021/09/06 00:12:54;;;;;;;2.72;2.53;;;;;;;16.98;52.97;101885.41;683098;28;23465;-65
2021/09/06 00:13:17;;;;;;;2.47;2.30;;;;;;;16.97;52.86;101880.97;682051;28;46295;-66
2021/09/06 00:13:40;;;;;;;2.92;2.50;;;;;;;16.97;53.05;101883.69;680849;28;66852;-67
2021/09/06 00:14:02;;;;;;;4.10;2.70;;;;;;;16.97;52.88;101884.53;682115;28;46286;-67
2021/09/06 00:14:23;;;;;;;3.65;2.42;;;;;;;16.96;52.86;101882.84;681282;28;68336;-66
2021/09/06 00:14:44;;;;;;;3.00;2.80;;;;;;;16.97;52.95;101886.41;683180;28;22353;-66
2021/09/06 00:15:06;;;;;;;3.05;2.85;;;;;;;16.95;53.01;101886.59;682710;28;23890;-67
2021/09/06 00:15:27;;;;;;;3.80;2.92;;;;;;;16.95;52.71;101883.88;682747;28;21516;-66
2021/09/06 00:15:49;;;;;;;3.20;2.90;;;;;;;16.95;52.87;101880.31;682924;28;22379;-66
2021/09/06 00:16:14;;;;;;;2.70;2.50;;;;;;;16.93;52.94;101881.34;681531;28;60004;-66
2021/09/06 00:16:35;;;;;;;3.00;2.70;;;;;;;16.93;53.17;101881.34;682835;28;21311;-67
2021/09/06 00:16:56;;;;;;;2.93;2.63;;;;;;;16.93;52.87;101883.25;681725;28;46747;-66
2021/09/06 00:17:18;;;;;;;2.93;2.60;;;;;;;16.91;53.00;101885.28;682093;28;46490;-66
2021/09/06 00:17:39;;;;;;;2.88;2.67;;;;;;;16.88;53.17;101881.06;681613;28;44414;-67
2021/09/06 00:18:01;;;;;;;3.35;2.67;;;;;;;16.87;53.13;101884.84;682573;28;44021;-67
2021/09/06 00:18:22;;;;;;;3.45;2.55;;;;;;;16.87;53.29;101878.53;681493;28;23842;-66
2021/09/06 00:18:44;;;;;;;3.03;2.53;;;;;;;16.85;53.31;101884.16;681621;29;23559;-65
2021/09/06 00:19:05;;;;;;;2.92;2.70;;;;;;;16.83;53.51;101877.19;680860;29;45358;-66
2021/09/06 00:19:27;;;;;;;3.50;2.60;;;;;;;16.85;53.30;101886.88;680697;29;46484;-67
2021/09/06 00:19:48;;;;;;;2.75;2.55;;;;;;;16.83;53.39;101883.47;683667;28;22296;-67
2021/09/06 00:20:10;;;;;;;3.60;2.72;;;;;;;16.83;53.40;101879.91;682663;28;23475;-66
2021/09/06 00:20:34;;;;;;;3.95;3.05;;;;;;;16.82;53.41;101883.66;682073;28;46348;-67
2021/09/06 00:20:57;;;;;;;3.33;3.03;;;;;;;16.81;53.38;101884.72;680731;28;92275;-66
2021/09/06 00:21:18;;;;;;;3.08;2.88;;;;;;;16.80;53.47;101892.03;681508;28;67505;-67
2021/09/06 00:21:39;;;;;;;3.80;2.80;;;;;;;16.78;53.68;101894.13;682396;28;22419;-64
2021/09/06 00:22:01;;;;;;;3.00;2.73;;;;;;;16.78;53.59;101887.84;682264;28;46364;-65
2021/09/06 00:22:22;;;;;;;3.03;2.72;;;;;;;16.76;53.63;101880.69;679907;29;69529;-67
2021/09/06 00:22:44;;;;;;;3.23;2.77;;;;;;;16.76;53.31;101880.69;680931;28;44396;-66
2021/09/06 00:23:05;;;;;;;2.85;2.65;;;;;;;16.75;53.46;101881.72;681510;28;44202;-66
2021/09/06 00:23:27;;;;;;;2.83;2.63;;;;;;;16.77;53.67;101881.53;682903;28;21540;-67
2021/09/06 00:23:49;;;;;;;3.05;2.67;;;;;;;16.78;53.70;101883.22;681482;28;70215;-67
2021/09/06 00:24:10;;;;;;;2.92;2.63;;;;;;;16.78;53.59;101882.38;683323;28;23489;-66
2021/09/06 00:24:33;;;;;;;2.97;2.67;;;;;;;16.78;53.60;101882.38;682830;28;21524;-65
2021/09/06 00:24:54;;;;;;;3.22;2.80;;;;;;;16.79;53.46;101879.47;681423;28;69192;-67
2021/09/06 00:25:16;;;;;;;4.47;2.83;;;;;;;16.78;53.74;101877.75;682489;28;23129;-66
2021/09/06 00:25:38;;;;;;;3.13;2.83;;;;;;;16.78;53.41;101882.38;680836;28;46572;-67
2021/09/06 00:25:59;;;;;;;3.05;2.65;;;;;;;16.82;53.60;101880.94;680896;29;44426;-67
2021/09/06 00:26:23;;;;;;;2.75;2.55;;;;;;;16.83;53.50;101883.47;681475;29;24398;-66
2021/09/06 00:26:44;;;;;;;3.45;2.85;;;;;;;16.82;53.54;101879.09;680261;28;90898;-66
2021/09/06 00:27:06;;;;;;;2.65;2.45;;;;;;;16.84;53.39;101887.91;683128;28;21263;-65
2021/09/06 00:27:27;;;;;;;2.83;2.60;;;;;;;16.82;53.50;101880.94;682479;28;45288;-67
2021/09/06 00:27:49;;;;;;;2.95;2.65;;;;;;;16.86;53.35;101882.28;683047;28;4509;-66
2021/09/06 00:28:11;;;;;;;2.80;2.60;;;;;;;16.86;53.34;101885.03;682430;28;45277;-66
2021/09/06 00:28:32;;;;;;;2.63;2.42;;;;;;;16.85;53.34;101878.69;682520;28;44355;-66
2021/09/06 00:28:53;;;;;;;2.90;2.70;;;;;;;16.84;53.28;101874.28;683152;28;24309;-67
2021/09/06 00:29:14;;;;;;;3.03;2.80;;;;;;;16.85;53.53;101880.56;683293;28;22472;-66
2021/09/06 00:29:35;;;;;;;2.88;2.60;;;;;;;16.85;53.34;101888.75;683774;28;22423;-66
2021/09/06 00:29:56;;;;;;;2.90;2.60;;;;;;;16.84;53.35;101887.06;683085;28;23474;-67
2021/09/06 00:30:19;;;;;;;3.00;2.70;;;;;;;16.83;53.38;101888.09;682901;28;22235;-67
2021/09/06 00:30:40;;;;;;;2.90;2.70;;;;;;;16.82;53.44;101883.66;682222;28;44291;-64
2021/09/06 00:31:01;;;;;;;3.55;2.70;;;;;;;16.81;53.43;101887.47;682276;28;47219;-67
2021/09/06 00:31:23;;;;;;;4.38;2.92;;;;;;;16.80;53.55;101886.59;683695;28;23734;-66
2021/09/06 00:31:44;;;;;;;2.90;2.70;;;;;;;16.76;53.37;101875.22;682072;28;44401;-65
2021/09/06 00:32:06;;;;;;;3.00;2.80;;;;;;;16.73;53.62;101881.06;686093;28;22416;-67
2021/09/06 00:32:27;;;;;;;3.08;2.78;;;;;;;16.78;53.56;101883.22;685709;28;23451;-67
2021/09/06 00:32:49;;;;;;;3.40;2.58;;;;;;;16.78;53.60;101887.84;685380;28;45291;-66
2021/09/06 00:33:10;;;;;;;3.13;2.65;;;;;;;16.78;53.37;101882.38;683595;28;46300;-66
2021/09/06 00:33:32;;;;;;;2.80;2.60;;;;;;;16.78;53.52;101882.38;684802;28;21522;-66
2021/09/06 00:33:53;;;;;;;3.60;2.80;;;;;;;16.78;53.47;101882.38;683227;28;23518;-67
2021/09/06 00:34:15;;;;;;;5.22;2.92;;;;;;;16.78;53.44;101883.22;681998;28;23441;-66
2021/09/06 00:34:36;;;;;;;3.80;2.85;;;;;;;16.78;53.58;101883.22;681246;29;45212;-66
2021/09/06 00:34:57;;;;;;;5.80;3.28;;;;;;;16.78;53.75;101879.66;681124;28;46889;-67
2021/09/06 00:35:18;;;;;;;5.13;3.10;;;;;;;16.78;53.63;101879.66;681467;29;21531;-66
2021/09/06 00:35:40;;;;;;;3.08;2.80;;;;;;;16.76;53.51;101877.94;682472;28;22242;-67
2021/09/06 00:36:01;;;;;;;3.65;2.90;;;;;;;16.76;53.38;101879.84;683882;28;46352;-67
2021/09/06 00:36:22;;;;;;;2.95;2.67;;;;;;;16.75;53.79;101880.88;685644;28;22416;-67
2021/09/06 00:36:43;;;;;;;2.75;2.55;;;;;;;16.75;53.54;101876.28;685688;28;22240;-67
2021/09/06 00:37:05;;;;;;;3.10;2.80;;;;;;;16.75;53.72;101883.59;684951;28;23449;-66
2021/09/06 00:37:28;;;;;;;4.07;3.08;;;;;;;16.74;53.68;101871.00;685090;28;46395;-67
2021/09/06 00:37:49;;;;;;;4.00;2.85;;;;;;;16.74;53.55;101873.75;682455;28;67373;-67
2021/09/06 00:38:12;;;;;;;2.85;2.65;;;;;;;16.68;53.38;101866.31;684107;28;69494;-66
2021/09/06 00:38:34;;;;;;;3.05;2.58;;;;;;;16.73;53.45;101881.06;686002;28;21526;-67
2021/09/06 00:38:55;;;;;;;4.18;2.67;;;;;;;16.72;53.64;101879.38;681916;28;69426;-66
2021/09/06 00:39:18;;;;;;;4.03;2.88;;;;;;;16.71;53.53;101874.97;680519;28;67731;-67
2021/09/06 00:39:39;;;;;;;3.25;2.85;;;;;;;16.70;53.34;101881.44;682827;28;22387;-67
2021/09/06 00:40:00;;;;;;;2.80;2.60;;;;;;;16.70;53.67;101880.59;683321;28;22380;-66
2021/09/06 00:40:22;;;;;;;3.05;2.80;;;;;;;16.69;53.66;101878.91;682927;28;21535;-67
2021/09/06 00:40:44;;;;;;;2.85;2.65;;;;;;;16.70;53.65;101869.69;682510;28;30817;-67
2021/09/06 00:41:05;;;;;;;2.85;2.58;;;;;;;16.70;53.56;101880.59;683131;28;45098;-67
2021/09/06 00:41:28;;;;;;;3.50;2.85;;;;;;;16.68;53.61;101877.22;685277;28;22163;-67
2021/09/06 00:41:49;;;;;;;3.17;2.88;;;;;;;16.68;53.60;101872.59;680649;28;89051;-67
2021/09/06 00:42:10;;;;;;;2.85;2.65;;;;;;;16.69;53.55;101877.03;683966;28;22409;-65
2021/09/06 00:42:32;;;;;;;2.83;2.63;;;;;;;16.69;53.44;101876.16;682258;28;45243;-67
2021/09/06 00:42:54;;;;;;;3.15;2.95;;;;;;;16.67;53.51;101884.53;685535;28;23419;-66
2021/09/06 00:43:16;;;;;;;2.95;2.70;;;;;;;16.67;53.48;101886.44;682128;28;44409;-67
2021/09/06 00:43:39;;;;;;;3.35;3.05;;;;;;;16.66;53.55;101873.81;681655;28;45264;-67
2021/09/06 00:44:02;;;;;;;3.75;2.88;;;;;;;16.67;53.46;101880.97;681854;28;69436;-67
2021/09/06 00:44:23;;;;;;;3.17;2.80;;;;;;;16.67;53.66;101887.28;676447;29;69443;-67
2021/09/06 00:44:44;;;;;;;4.05;3.00;;;;;;;16.68;53.70;101888.13;678920;29;21525;-66
2021/09/06 00:45:06;;;;;;;3.40;2.90;;;;;;;16.65;53.68;101880.34;680990;28;22423;-67
2021/09/06 00:45:28;;;;;;;3.50;2.80;;;;;;;16.67;53.62;101880.97;680426;28;44379;-67
2021/09/06 00:45:49;;;;;;;2.95;2.38;;;;;;;16.66;53.49;101885.59;681178;29;46406;-66
2021/09/06 00:46:11;;;;;;;2.67;2.45;;;;;;;16.65;53.62;101881.16;681991;28;23481;-67
2021/09/06 00:46:32;;;;;;;3.47;2.60;;;;;;;16.64;53.52;101881.34;680308;29;22419;-66
2021/09/06 00:46:55;;;;;;;2.57;2.23;;;;;;;16.62;53.55;101881.53;677292;29;46332;-66
2021/09/06 00:47:17;;;;;;;3.15;2.70;;;;;;;16.60;53.64;101882.75;676520;29;90373;-67
2021/09/06 00:47:39;;;;;;;3.10;2.80;;;;;;;16.62;53.70;101877.97;679084;29;46430;-66
2021/09/06 00:48:00;;;;;;;2.80;2.60;;;;;;;16.62;53.67;101887.00;680604;29;23487;-67
2021/09/06 00:48:22;;;;;;;3.10;2.85;;;;;;;16.58;53.87;101880.22;680705;28;22188;-66
2021/09/06 00:48:43;;;;;;;3.20;2.70;;;;;;;16.63;53.96;101885.09;680554;28;47580;-67
2021/09/06 00:49:04;;;;;;;3.03;2.80;;;;;;;16.62;53.86;101887.00;682720;28;44422;-68
2021/09/06 00:49:25;;;;;;;3.28;2.80;;;;;;;16.60;53.80;101880.03;682467;28;46345;-66
2021/09/06 00:49:46;;;;;;;2.70;2.50;;;;;;;16.62;53.75;101894.34;683361;28;23927;-66
2021/09/06 00:50:12;;;;;;;2.90;2.70;;;;;;;16.61;54.00;101885.28;683242;28;21564;-67
2021/09/06 00:50:34;;;;;;;3.17;2.90;;;;;;;16.60;53.79;101885.47;681211;28;137288;-66
2021/09/06 00:50:56;;;;;;;2.80;2.60;;;;;;;16.57;53.81;101886.72;685124;28;46371;-66
2021/09/06 00:51:17;;;;;;;2.70;2.50;;;;;;;16.57;53.90;101881.28;685909;28;23506;-66
2021/09/06 00:51:39;;;;;;;3.00;2.70;;;;;;;16.57;53.71;101884.00;684520;28;46612;-67
2021/09/06 00:52:00;;;;;;;3.50;3.08;;;;;;;16.55;53.91;101884.19;684629;28;44161;-65
2021/09/06 00:52:21;;;;;;;3.15;2.67;;;;;;;16.55;53.94;101888.78;685919;28;22383;-66
2021/09/06 00:52:44;;;;;;;3.67;2.70;;;;;;;16.54;54.00;101887.09;685317;28;22369;-65
2021/09/06 00:53:06;;;;;;;4.13;3.10;;;;;;;16.52;53.96;101883.69;684670;28;44322;-66
2021/09/06 00:53:27;;;;;;;3.30;3.00;;;;;;;16.52;54.21;101884.56;684257;28;69793;-66
2021/09/06 00:53:49;;;;;;;3.40;3.10;;;;;;;16.50;53.97;101886.63;684767;28;44384;-66
2021/09/06 00:54:12;;;;;;;3.13;2.85;;;;;;;16.51;54.28;101888.31;684904;28;46415;-66
2021/09/06 00:54:34;;;;;;;4.45;3.10;;;;;;;16.49;54.02;101881.34;683809;28;69083;-67
2021/09/06 00:54:55;;;;;;;3.85;2.88;;;;;;;16.46;54.12;101879.88;685575;28;22405;-66
2021/09/06 00:55:18;;;;;;;3.60;2.70;;;;;;;16.44;54.30;101886.53;682435;28;92363;-66
2021/09/06 00:55:41;;;;;;;2.90;2.60;;;;;;;16.44;54.08;101881.06;684955;28;46287;-66
2021/09/06 00:56:04;;;;;;;3.00;2.63;;;;;;;16.42;54.39;101881.25;681704;28;90871;-66
2021/09/06 00:56:30;;;;;;;2.70;2.50;;;;;;;16.40;54.24;101884.19;679920;28;115046;-66
2021/09/06 00:56:54;;;;;;;3.55;2.67;;;;;;;16.37;54.35;101873.66;680625;28;70613;-67
2021/09/06 00:57:17;;;;;;;4.22;2.72;;;;;;;16.36;53.94;101879.28;682669;28;67492;-66
2021/09/06 00:57:39;;;;;;;2.72;2.53;;;;;;;16.36;54.59;101879.28;681745;28;93166;-66
2021/09/06 00:58:00;;;;;;;2.75;2.50;;;;;;;16.33;54.45;101876.94;685820;28;21846;-67
2021/09/06 00:58:23;;;;;;;3.53;2.65;;;;;;;16.31;54.83;101876.28;685582;28;22400;-66
2021/09/06 00:58:45;;;;;;;3.00;2.70;;;;;;;16.31;54.85;101877.13;680573;28;69453;-66
2021/09/06 00:59:06;;;;;;;4.35;2.70;;;;;;;16.30;54.73;101875.44;682033;28;46345;-67
2021/09/06 00:59:28;;;;;;;5.45;2.60;;;;;;;16.29;54.73;101881.94;682736;28;45380;-67
2021/09/06 00:59:50;;;;;;;3.13;2.67;;;;;;;16.27;54.74;101878.53;679569;29;46359;-67
2021/09/06 01:00:14;;;;;;;3.58;3.20;;;;;;;16.26;54.87;101879.56;681074;28;22409;-66
2021/09/06 01:00:36;;;;;;;3.17;2.78;;;;;;;16.25;55.00;101880.59;679479;28;74598;-66
2021/09/06 01:00:58;;;;;;;2.60;2.40;;;;;;;16.24;55.05;101872.59;683311;28;22383;-67
2021/09/06 01:01:21;;;;;;;3.30;2.63;;;;;;;16.21;55.02;101873.84;681044;28;90479;-66
2021/09/06 01:01:43;;;;;;;3.67;2.80;;;;;;;16.20;55.12;101878.44;683378;28;21461;-66
2021/09/06 01:02:05;;;;;;;3.92;2.90;;;;;;;16.20;55.16;101877.59;683931;28;68139;-66
2021/09/06 01:02:26;;;;;;;3.42;2.72;;;;;;;16.18;55.11;101869.59;684825;28;23505;-67
2021/09/06 01:02:48;;;;;;;2.65;2.45;;;;;;;16.17;55.15;101875.25;685071;28;46654;-66
2021/09/06 01:03:10;;;;;;;2.83;2.63;;;;;;;16.16;54.96;101885.31;683013;28;23495;-67
2021/09/06 01:03:33;;;;;;;2.90;2.58;;;;;;;16.14;55.17;101871.00;680968;28;92147;-66
2021/09/06 01:04:05;;;;;;;3.63;2.72;;;;;;;16.13;55.19;101866.59;676605;29;137605;-66
2021/09/06 01:04:43;;;;;;;3.13;2.78;;;;;;;16.07;55.35;101872.78;675093;29;137331;-66
2021/09/06 01:05:25;;;;;;;3.10;2.63;;;;;;;16.12;55.23;101878.53;676148;29;138733;-67
2021/09/06 01:05:48;;;;;;;3.00;2.70;;;;;;;16.13;55.45;101879.38;678375;29;91614;-66
2021/09/06 01:06:29;;;;;;;2.70;2.50;;;;;;;16.12;55.36;101877.69;678544;28;138423;-67
2021/09/06 01:07:08;;;;;;;3.15;2.85;;;;;;;16.13;55.34;101874.78;679156;28;138369;-66
2021/09/06 01:07:47;;;;;;;4.60;2.60;;;;;;;16.09;55.35;101869.88;679849;28;138139;-65
2021/09/06 01:08:28;;;;;;;5.20;2.97;;;;;;;16.11;55.01;101871.41;677785;28;137130;-67
2021/09/06 01:09:18;;;;;;;3.20;2.90;;;;;;;16.11;55.06;101876.84;677920;28;138453;-66
2021/09/06 01:10:00;;;;;;;3.05;2.75;;;;;;;16.09;55.44;101875.34;675004;29;137964;-66
2021/09/06 01:10:32;;;;;;;3.13;2.92;;;;;;;16.08;55.16;101874.50;678970;28;136093;-68
2021/09/06 01:11:22;;;;;;;4.90;3.20;;;;;;;16.06;55.27;101871.09;681604;28;161324;-67
2021/09/06 01:12:14;;;;;;;2.90;2.60;;;;;;;16.03;55.46;101876.91;676223;28;179907;-67
2021/09/06 01:12:41;;;;;;;2.83;2.55;;;;;;;16.01;55.39;101871.63;674558;29;161711;-67
2021/09/06 01:13:03;;;;;;;2.83;2.63;;;;;;;16.02;55.40;101881.53;678827;29;69454;-66
2021/09/06 01:13:27;;;;;;;3.42;2.80;;;;;;;16.01;55.59;101876.25;680916;28;92289;-66
2021/09/06 01:13:50;;;;;;;4.07;2.95;;;;;;;16.01;55.70;101877.09;681971;28;45202;-66
2021/09/06 01:14:11;;;;;;;3.42;2.85;;;;;;;16.00;55.71;101875.41;680656;29;46429;-67
2021/09/06 01:14:34;;;;;;;3.50;2.80;;;;;;;15.99;55.67;101879.16;678814;28;69398;-67
2021/09/06 01:14:55;;;;;;;3.13;2.80;;;;;;;15.98;55.65;101876.63;680549;29;21097;-66
2021/09/06 01:15:19;;;;;;;2.75;2.50;;;;;;;15.98;55.74;101873.91;680675;29;1108;-66
2021/09/06 01:15:40;;;;;;;3.97;2.75;;;;;;;15.96;55.82;101882.25;676821;29;69463;-67
2021/09/06 01:16:01;;;;;;;4.95;3.20;;;;;;;15.96;55.85;101881.41;681615;28;21534;-67
2021/09/06 01:16:23;;;;;;;3.80;3.00;;;;;;;15.95;55.93;101877.84;682018;28;46344;-68
2021/09/06 01:16:44;;;;;;;3.13;2.85;;;;;;;15.95;55.96;101882.44;682992;28;22420;-67
2021/09/06 01:17:06;;;;;;;3.05;2.70;;;;;;;15.95;55.78;101879.72;683989;28;46360;-66
2021/09/06 01:17:28;;;;;;;3.10;2.90;;;;;;;15.94;55.76;101878.88;682279;28;44401;-67
2021/09/06 01:17:49;;;;;;;3.83;2.85;;;;;;;15.95;55.65;101877.84;682158;28;22528;-66
2021/09/06 01:18:11;;;;;;;3.47;2.60;;;;;;;15.94;55.75;101880.75;682150;28;44385;-67
2021/09/06 01:18:33;;;;;;;3.00;2.65;;;;;;;15.93;55.71;101873.63;681997;28;21147;-66
2021/09/06 01:18:55;;;;;;;2.90;2.70;;;;;;;15.93;55.77;101879.91;676813;29;69577;-66
2021/09/06 01:19:17;;;;;;;2.88;2.67;;;;;;;15.93;55.98;101876.34;677896;29;22407;-67
2021/09/06 01:19:39;;;;;;;3.03;2.72;;;;;;;15.93;55.96;101879.06;678786;29;69361;-66
2021/09/06 01:20:01;;;;;;;3.80;2.83;;;;;;;15.92;55.69;101880.91;678551;29;21555;-67
2021/09/06 01:20:25;;;;;;;3.00;2.80;;;;;;;15.92;55.76;101877.38;675418;29;115648;-67
2021/09/06 01:20:51;;;;;;;3.20;2.83;;;;;;;15.92;55.97;101874.63;674547;29;138235;-67
2021/09/06 01:21:16;;;;;;;2.78;2.58;;;;;;;15.91;55.87;101879.25;674776;29;115396;-67
2021/09/06 01:21:59;;;;;;;3.78;2.55;;;;;;;15.89;55.95;101873.13;675410;29;160376;-67
2021/09/06 01:22:33;;;;;;;3.10;2.80;;;;;;;15.90;56.01;101873.97;677084;29;125488;-66
2021/09/06 01:23:09;;;;;;;3.08;2.78;;;;;;;15.85;55.86;101875.38;677631;28;138711;-67
2021/09/06 01:23:54;;;;;;;3.00;2.80;;;;;;;15.85;55.95;101878.09;678336;28;138587;-67
2021/09/06 01:24:21;;;;;;;3.13;2.53;;;;;;;15.87;56.14;101877.06;677477;28;138076;-67
2021/09/06 01:24:44;;;;;;;3.17;2.90;;;;;;;15.87;56.02;101877.91;682521;28;68362;-67
2021/09/06 01:25:14;;;;;;;3.22;2.80;;;;;;;15.87;56.25;101877.06;680288;28;138651;-66
2021/09/06 01:25:36;;;;;;;3.40;2.58;;;;;;;15.85;56.03;101869.94;679567;28;138118;-66
2021/09/06 01:25:58;;;;;;;2.90;2.60;;;;;;;15.80;56.12;101869.63;682589;28;22501;-67
2021/09/06 01:26:19;;;;;;;3.40;2.70;;;;;;;15.86;56.18;101887.09;681751;28;70086;-67
2021/09/06 01:26:42;;;;;;;3.42;2.90;;;;;;;15.85;56.07;101880.81;682702;28;21500;-67
2021/09/06 01:27:04;;;;;;;3.80;2.90;;;;;;;15.85;56.15;101883.53;678540;29;69723;-66
2021/09/06 01:27:25;;;;;;;2.95;2.63;;;;;;;15.84;56.22;101879.13;680414;29;22376;-66
2021/09/06 01:27:47;;;;;;;3.28;2.83;;;;;;;15.82;56.24;101875.75;678654;29;69469;-67
2021/09/06 01:28:13;;;;;;;3.17;2.67;;;;;;;15.85;56.07;101880.00;678907;29;92500;-65
2021/09/06 01:28:34;;;;;;;3.97;2.78;;;;;;;15.83;56.33;101877.44;680769;28;45218;-65
2021/09/06 01:28:56;;;;;;;8.43;2.90;;;;;;;15.83;56.25;101879.31;682202;28;46254;-67
2021/09/06 01:29:22;;;;;;;4.10;3.10;;;;;;;15.82;56.23;101880.34;678947;28;138024;-66
2021/09/06 01:29:45;;;;;;;2.90;2.70;;;;;;;15.81;56.19;101874.03;680178;28;45308;-65
2021/09/06 01:30:08;;;;;;;3.13;2.83;;;;;;;15.81;56.24;101878.66;675301;29;89799;-67
2021/09/06 01:30:29;;;;;;;3.53;2.90;;;;;;;15.82;56.14;101883.91;678488;29;46317;-67
2021/09/06 01:30:52;;;;;;;3.92;2.95;;;;;;;15.81;56.06;101882.22;680350;28;23471;-67
2021/09/06 01:31:13;;;;;;;4.40;2.78;;;;;;;15.80;55.94;101880.53;680367;28;69443;-67
2021/09/06 01:31:40;;;;;;;2.92;2.50;;;;;;;15.79;56.08;101878.00;677775;29;136418;-67
2021/09/06 01:32:04;;;;;;;3.15;2.85;;;;;;;15.77;56.36;101877.34;680776;28;32094;-67
2021/09/06 01:32:26;;;;;;;2.60;2.40;;;;;;;15.79;56.34;101883.44;679309;29;69464;-67
2021/09/06 01:32:47;;;;;;;3.03;2.60;;;;;;;15.77;56.33;101878.19;676927;29;45098;-67
2021/09/06 01:33:09;;;;;;;3.60;2.80;;;;;;;15.79;56.02;101883.44;676819;29;46361;-67
2021/09/06 01:33:30;;;;;;;3.08;2.80;;;;;;;15.78;56.15;101882.59;677898;29;46334;-67
2021/09/06 01:33:52;;;;;;;3.15;2.85;;;;;;;15.78;56.23;101876.28;680581;29;21536;-67
2021/09/06 01:34:15;;;;;;;3.05;2.85;;;;;;;15.77;56.18;101874.63;676723;29;46232;-66
2021/09/06 01:34:37;;;;;;;3.05;2.80;;;;;;;15.76;56.30;101875.59;677990;29;46451;-67
2021/09/06 01:34:58;;;;;;;2.90;2.70;;;;;;;15.77;56.20;101878.19;679728;29;46327;-67
2021/09/06 01:35:19;;;;;;;4.25;3.22;;;;;;;15.76;56.11;101875.59;680128;29;22312;-67
2021/09/06 01:35:47;;;;;;;5.30;2.88;;;;;;;15.77;56.30;101878.19;677717;28;137909;-67
2021/09/06 01:36:09;;;;;;;3.10;2.75;;;;;;;15.76;56.45;101879.16;679319;29;69535;-67
2021/09/06 01:36:30;;;;;;;3.05;2.80;;;;;;;15.75;56.20;101874.78;680130;29;22395;-65
2021/09/06 01:36:53;;;;;;;3.90;2.72;;;;;;;15.76;56.13;101875.59;679885;29;67508;-67
2021/09/06 01:37:15;;;;;;;4.20;2.72;;;;;;;15.76;56.30;101872.88;679647;29;22427;-67
2021/09/06 01:37:42;;;;;;;3.63;2.80;;;;;;;15.75;56.21;101868.47;674176;29;139637;-67
2021/09/06 01:38:05;;;;;;;3.55;2.78;;;;;;;15.74;56.37;101873.06;677756;29;23420;-67
2021/09/06 01:38:26;;;;;;;3.65;2.90;;;;;;;15.68;56.16;101866.47;676145;29;66895;-67
2021/09/06 01:38:48;;;;;;;3.10;2.90;;;;;;;15.71;56.39;101872.59;676680;29;20870;-67
2021/09/06 01:39:09;;;;;;;2.78;2.58;;;;;;;15.71;56.50;101867.97;676600;29;46433;-67
2021/09/06 01:39:30;;;;;;;3.15;2.88;;;;;;;15.72;56.47;101872.41;676030;29;21465;-66
2021/09/06 01:39:52;;;;;;;3.80;2.80;;;;;;;15.72;56.29;101874.28;676442;29;23515;-68
2021/09/06 01:40:14;;;;;;;3.33;2.90;;;;;;;15.71;56.48;101878.88;675788;29;44380;-67
2021/09/06 01:40:36;;;;;;;3.45;2.83;;;;;;;15.73;56.53;101870.53;676826;29;45574;-67
2021/09/06 01:40:58;;;;;;;3.05;2.85;;;;;;;15.71;56.69;101875.31;677155;29;46347;-67
2021/09/06 01:41:20;;;;;;;3.17;2.97;;;;;;;15.70;56.40;101882.63;678229;29;44182;-67
2021/09/06 01:41:42;;;;;;;3.25;2.95;;;;;;;15.68;56.63;101871.06;682635;28;21464;-66
2021/09/06 01:42:04;;;;;;;3.85;2.75;;;;;;;15.66;56.48;101875.88;681582;28;92254;-67
2021/09/06 01:42:26;;;;;;;3.00;2.80;;;;;;;15.67;56.60;101872.97;682104;28;22421;-66
2021/09/06 01:42:50;;;;;;;3.08;2.78;;;;;;;15.67;56.65;101869.38;675688;29;92202;-67
2021/09/06 01:43:15;;;;;;;3.30;2.92;;;;;;;15.66;56.68;101873.97;676584;29;90395;-67
2021/09/06 01:43:36;;;;;;;2.85;2.65;;;;;;;15.67;56.60;101872.09;677350;29;69417;-67
2021/09/06 01:43:58;;;;;;;2.90;2.70;;;;;;;15.66;56.63;101873.97;678636;29;46419;-66
2021/09/06 01:44:20;;;;;;;2.90;2.70;;;;;;;15.67;56.68;101874.81;679884;29;43701;-67
2021/09/06 01:44:43;;;;;;;3.10;2.80;;;;;;;15.65;56.96;101868.72;683783;28;69499;-65
2021/09/06 01:45:09;;;;;;;3.00;2.80;;;;;;;15.65;56.63;101869.56;679354;28;138807;-66
2021/09/06 01:45:30;;;;;;;3.10;2.80;;;;;;;15.64;56.95;101869.72;682209;28;46341;-66
2021/09/06 01:45:51;;;;;;;3.03;2.83;;;;;;;15.62;56.75;101871.81;682058;28;8874;-67
2021/09/06 01:46:14;;;;;;;4.28;3.40;;;;;;;15.62;56.92;101872.63;680377;29;21588;-66
2021/09/06 01:46:35;;;;;;;4.50;3.05;;;;;;;15.62;56.97;101869.09;680462;28;45254;-67
2021/09/06 01:46:58;;;;;;;3.00;2.72;;;;;;;15.61;56.93;101872.81;679466;28;92130;-66
2021/09/06 01:47:20;;;;;;;3.20;3.00;;;;;;;15.61;56.94;101875.53;682500;28;23490;-67
2021/09/06 01:47:42;;;;;;;3.00;2.80;;;;;;;15.60;57.13;101874.72;679981;29;45278;-66
2021/09/06 01:48:04;;;;;;;3.47;3.08;;;;;;;15.58;57.17;101874.06;681114;28;66839;-66
2021/09/06 01:48:30;;;;;;;3.75;3.03;;;;;;;15.58;57.17;101875.91;674365;29;127535;-66
2021/09/06 01:48:51;;;;;;;3.58;2.90;;;;;;;15.57;57.16;101880.53;676282;29;22381;-66
2021/09/06 01:49:13;;;;;;;3.92;2.85;;;;;;;15.55;57.11;101874.41;675380;29;46388;-66